Goldsworthy, Australia
Current Conditions -  °F | °C
As of 2:30 PM on Thursday 23 Oct 2014 (Local Time) from YPPD Reporting Station
Clear Clear  
Wind Chill: 100°   Ceiling: Unl
Heat Index: 100°   Visibility: 6mi
Dew Point: 45°   Wind: 22mph
Humidity: 15%   Direction: 300°WNW
Pressure: 29.77"   Gusts: NA
Location:  20.34°S, 119.52°E
Report Text: YPPD 230630Z 30019KT CAVOK 38/07 Q1008
Loading
Personal Weather Stations






























Interactive Weather Map
Tropical Storm Tracking
New forecast layout! Learn more

10-Day Weather Forecast

Advertisements
Track Severe Weather on mobile